createdAt,value
2018-09-26T00:01:08.163Z,8.50
2018-09-26T00:03:46.409Z,8.40
2018-09-26T00:06:15.731Z,8.40
2018-09-26T00:08:45.024Z,8.40
2018-09-26T00:11:14.252Z,8.40
2018-09-26T00:13:43.482Z,8.50
2018-09-26T00:16:12.722Z,8.50
2018-09-26T00:18:41.984Z,8.60
2018-09-26T00:21:11.271Z,8.60
2018-09-26T00:23:40.570Z,8.60
2018-09-26T00:26:09.855Z,8.60
2018-09-26T00:28:39.075Z,8.70
2018-09-26T00:31:10.555Z,8.70
2018-09-26T00:33:39.784Z,8.70
2018-09-26T00:36:09.296Z,8.70
2018-09-26T00:38:38.998Z,8.70
2018-09-26T00:41:08.282Z,8.70
2018-09-26T00:43:37.516Z,8.70
2018-09-26T00:46:07.421Z,8.70
2018-09-26T00:48:36.731Z,8.80
2018-09-26T00:51:06.097Z,8.80
2018-09-26T00:53:35.440Z,8.80
2018-09-26T00:56:04.722Z,8.90
2018-09-26T00:58:34.058Z,9.00
2018-09-26T01:01:03.298Z,9.00
2018-09-26T01:03:32.515Z,9.00
2018-09-26T01:06:01.748Z,9.10
2018-09-26T01:08:31.713Z,9.00
2018-09-26T01:11:01.599Z,9.00
2018-09-26T01:13:31.026Z,8.90
2018-09-26T01:16:00.252Z,8.80
2018-09-26T01:18:29.483Z,8.80
2018-09-26T01:20:58.751Z,8.80
2018-09-26T01:23:27.956Z,8.80
2018-09-26T01:25:57.188Z,8.80
2018-09-26T01:28:26.400Z,8.70
2018-09-26T01:30:55.612Z,8.80
2018-09-26T01:33:24.860Z,8.80
2018-09-26T01:35:54.098Z,8.80
2018-09-26T01:38:23.291Z,8.80
2018-09-26T01:40:52.563Z,8.90
2018-09-26T01:43:21.991Z,8.90
2018-09-26T01:45:51.236Z,8.80
2018-09-26T01:48:20.472Z,8.80
2018-09-26T01:50:49.712Z,8.80
2018-09-26T01:53:18.929Z,8.80
2018-09-26T01:55:48.166Z,8.70
2018-09-26T01:58:17.421Z,8.70
2018-09-26T02:00:47.232Z,8.70
2018-09-26T02:03:16.473Z,8.70
2018-09-26T02:05:45.735Z,8.70
2018-09-26T02:08:14.971Z,8.70
2018-09-26T02:10:44.213Z,8.70
2018-09-26T02:13:13.428Z,8.70
2018-09-26T02:15:42.696Z,8.60
2018-09-26T02:18:12.745Z,8.60
2018-09-26T02:20:41.987Z,8.60
2018-09-26T02:23:11.215Z,8.70
2018-09-26T02:25:40.473Z,8.60
2018-09-26T02:28:09.681Z,8.60
2018-09-26T02:30:39.163Z,8.60
2018-09-26T02:33:08.456Z,8.60
2018-09-26T02:35:37.752Z,8.60
2018-09-26T02:38:07.148Z,8.50
2018-09-26T02:40:36.842Z,8.60
2018-09-26T02:43:06.300Z,8.60
2018-09-26T02:45:35.533Z,8.60
2018-09-26T02:48:04.828Z,8.60
2018-09-26T02:50:34.311Z,8.70
2018-09-26T02:53:03.557Z,8.70
2018-09-26T02:55:32.932Z,8.70
2018-09-26T02:58:02.228Z,8.70
2018-09-26T03:00:31.436Z,8.70
2018-09-26T03:03:00.704Z,8.80
2018-09-26T03:05:29.989Z,8.80
2018-09-26T03:07:59.176Z,8.80
2018-09-26T03:10:28.447Z,8.90
2018-09-26T03:12:57.680Z,8.80
2018-09-26T03:15:26.934Z,8.90
2018-09-26T03:17:56.158Z,8.90
2018-09-26T03:20:26.203Z,9.00
2018-09-26T03:22:55.425Z,9.00
2018-09-26T03:25:24.752Z,9.00
2018-09-26T03:27:53.982Z,9.00
2018-09-26T03:30:23.212Z,9.00
2018-09-26T03:32:52.441Z,8.90
2018-09-26T03:35:21.721Z,8.90
2018-09-26T03:37:51.124Z,9.00
2018-09-26T03:40:20.339Z,9.00
2018-09-26T03:42:49.536Z,8.90
2018-09-26T03:45:18.812Z,8.90
2018-09-26T03:47:48.021Z,9.00
2018-09-26T03:50:17.244Z,9.00
2018-09-26T03:52:47.145Z,9.00
2018-09-26T03:55:16.362Z,9.00
2018-09-26T03:57:45.602Z,9.00
2018-09-26T04:00:14.955Z,9.00
2018-09-26T04:02:44.230Z,9.10
2018-09-26T04:05:13.472Z,9.10
2018-09-26T04:07:42.918Z,9.10
2018-09-26T04:10:12.565Z,9.10
2018-09-26T04:12:41.883Z,9.10
2018-09-26T04:15:11.052Z,9.10
2018-09-26T04:17:40.268Z,9.10
2018-09-26T04:20:09.549Z,9.10
2018-09-26T04:22:38.843Z,9.10
2018-09-26T04:25:08.115Z,9.10
2018-09-26T04:27:38.241Z,9.10
2018-09-26T04:30:07.463Z,9.10
2018-09-26T04:32:37.003Z,9.00
2018-09-26T04:35:06.227Z,9.00
2018-09-26T04:37:35.452Z,8.90
2018-09-26T04:40:04.761Z,8.90
2018-09-26T04:42:34.107Z,8.90
2018-09-26T04:45:03.363Z,8.90
2018-09-26T04:47:32.591Z,8.80
2018-09-26T04:50:01.875Z,8.90
2018-09-26T04:52:31.315Z,8.90
2018-09-26T04:55:01.033Z,8.90
2018-09-26T04:57:30.550Z,8.80
2018-09-26T04:59:59.871Z,8.80
2018-09-26T05:02:29.119Z,8.90
2018-09-26T05:04:59.140Z,8.90
2018-09-26T05:07:28.390Z,8.90
2018-09-26T05:09:57.596Z,8.90
2018-09-26T05:12:26.823Z,8.90
2018-09-26T05:14:56.048Z,8.90
2018-09-26T05:17:25.318Z,8.90
2018-09-26T05:19:54.563Z,8.90
2018-09-26T05:22:28.292Z,8.90
2018-09-26T05:24:57.569Z,8.90
2018-09-26T05:27:27.366Z,8.90
2018-09-26T05:29:56.589Z,8.90
2018-09-26T05:32:25.812Z,8.90
2018-09-26T05:34:55.049Z,8.90
2018-09-26T05:37:24.287Z,8.90
2018-09-26T05:39:53.504Z,8.90
2018-09-26T05:42:22.727Z,8.90
2018-09-26T05:44:51.927Z,8.90
2018-09-26T05:47:21.156Z,9.10
2018-09-26T05:49:50.403Z,9.10
2018-09-26T05:52:19.632Z,9.10
2018-09-26T05:54:48.848Z,9.20
2018-09-26T05:57:18.076Z,9.20
2018-09-26T05:59:47.323Z,9.30
2018-09-26T06:02:16.625Z,9.30
2018-09-26T06:04:45.872Z,9.40
2018-09-26T06:07:15.112Z,9.50
2018-09-26T06:09:44.333Z,9.50
2018-09-26T06:12:13.579Z,9.60
2018-09-26T06:14:42.840Z,9.60
2018-09-26T06:17:12.108Z,9.60
2018-09-26T06:19:41.355Z,9.70
2018-09-26T06:22:10.792Z,9.70
2018-09-26T06:24:40.107Z,9.70
2018-09-26T06:27:09.285Z,9.70
2018-09-26T06:29:38.542Z,9.80
2018-09-26T06:32:08.043Z,9.80
2018-09-26T06:34:37.283Z,9.90
2018-09-26T06:37:06.576Z,9.90
2018-09-26T06:39:35.862Z,10.00
2018-09-26T06:42:05.118Z,10.10
2018-09-26T06:44:34.364Z,10.10
2018-09-26T06:47:03.618Z,10.20
2018-09-26T06:49:32.942Z,10.30
2018-09-26T06:52:02.196Z,10.40
2018-09-26T06:54:31.515Z,10.50
2018-09-26T06:57:00.800Z,10.50
2018-09-26T06:59:30.592Z,10.50
2018-09-26T07:01:59.883Z,10.60
2018-09-26T07:04:29.240Z,10.70
2018-09-26T07:06:58.501Z,10.80
2018-09-26T07:09:27.717Z,10.80
2018-09-26T07:11:56.985Z,10.80
2018-09-26T07:14:26.559Z,10.90
2018-09-26T07:16:55.941Z,10.90
2018-09-26T07:19:25.502Z,11.00
2018-09-26T07:21:54.739Z,11.00
2018-09-26T07:24:23.962Z,11.00
2018-09-26T07:26:53.208Z,11.10
2018-09-26T07:29:22.446Z,11.20
2018-09-26T07:31:51.661Z,11.30
2018-09-26T07:34:25.171Z,11.50
2018-09-26T07:36:54.475Z,11.50
2018-09-26T07:39:23.808Z,11.60
2018-09-26T07:41:53.107Z,11.80
2018-09-26T07:44:22.352Z,11.90
2018-09-26T07:46:51.579Z,12.00
2018-09-26T07:49:20.872Z,12.20
2018-09-26T07:51:50.104Z,12.30
2018-09-26T07:54:19.619Z,12.30
2018-09-26T07:56:49.330Z,12.40
2018-09-26T07:59:18.589Z,12.40
2018-09-26T08:01:47.808Z,12.50
2018-09-26T08:04:17.131Z,12.60
2018-09-26T08:06:46.348Z,12.60
2018-09-26T08:09:15.584Z,12.70
2018-09-26T08:11:44.870Z,12.80
2018-09-26T08:14:14.040Z,12.80
2018-09-26T08:16:43.275Z,12.90
2018-09-26T08:19:12.536Z,13.00
2018-09-26T08:21:41.828Z,13.00
2018-09-26T08:24:11.408Z,13.10
2018-09-26T08:26:40.660Z,13.10
2018-09-26T08:29:09.907Z,13.20
2018-09-26T08:31:39.173Z,13.30
2018-09-26T08:34:08.504Z,13.30
2018-09-26T08:36:37.760Z,13.40
2018-09-26T08:39:10.208Z,13.50
2018-09-26T08:41:39.439Z,13.70
2018-09-26T08:44:09.637Z,13.80
2018-09-26T08:46:38.988Z,13.80
2018-09-26T08:49:08.269Z,13.90
2018-09-26T08:51:39.201Z,13.80
2018-09-26T08:54:08.450Z,13.80
2018-09-26T08:56:38.298Z,13.80
2018-09-26T08:59:07.571Z,13.90
2018-09-26T09:01:42.106Z,14.00
2018-09-26T09:04:11.409Z,14.10
2018-09-26T09:06:40.714Z,14.20
2018-09-26T09:09:10.620Z,14.30
2018-09-26T09:11:39.944Z,14.30
2018-09-26T09:14:09.235Z,14.50
2018-09-26T09:16:38.441Z,14.60
2018-09-26T09:19:07.863Z,14.90
2018-09-26T09:21:37.207Z,15.00
2018-09-26T09:24:06.552Z,15.10
2018-09-26T09:26:35.832Z,15.20
2018-09-26T09:29:05.270Z,15.20
2018-09-26T09:31:34.702Z,15.30
2018-09-26T09:34:03.953Z,15.40
2018-09-26T09:36:33.383Z,15.50
2018-09-26T09:39:02.825Z,15.50
2018-09-26T09:41:32.064Z,15.70
2018-09-26T09:44:01.418Z,15.80
2018-09-26T09:46:30.730Z,16.00
2018-09-26T09:49:00.047Z,16.00
2018-09-26T09:51:29.375Z,16.20
2018-09-26T09:53:58.555Z,16.10
2018-09-26T09:56:27.813Z,16.10
2018-09-26T09:58:57.043Z,16.20
2018-09-26T10:01:27.593Z,16.20
2018-09-26T10:03:58.440Z,16.30
2018-09-26T10:06:28.527Z,16.20
2018-09-26T10:08:58.359Z,16.10
2018-09-26T10:11:28.069Z,16.20
2018-09-26T10:13:57.354Z,16.20
2018-09-26T10:16:26.597Z,16.00
2018-09-26T10:18:55.940Z,16.00
2018-09-26T10:21:25.188Z,16.30
2018-09-26T10:23:54.998Z,16.30
2018-09-26T10:26:24.204Z,16.60
2018-09-26T10:28:53.517Z,16.50
2018-09-26T10:31:22.716Z,16.70
2018-09-26T10:33:51.931Z,16.70
2018-09-26T10:36:21.111Z,16.80
2018-09-26T10:38:50.373Z,17.00
2018-09-26T10:41:19.592Z,17.00
2018-09-26T10:43:48.804Z,17.10
2018-09-26T10:46:18.038Z,16.90
2018-09-26T10:48:47.296Z,16.80
2018-09-26T10:51:16.505Z,16.90
2018-09-26T10:53:45.716Z,17.00
2018-09-26T10:56:15.028Z,17.20
2018-09-26T10:58:44.184Z,17.50
2018-09-26T11:01:13.386Z,17.50
2018-09-26T11:03:42.609Z,17.50
2018-09-26T11:06:11.808Z,17.70
2018-09-26T11:08:41.001Z,17.80
2018-09-26T11:11:10.218Z,17.90
2018-09-26T11:13:39.463Z,17.90
2018-09-26T11:16:09.053Z,18.00
2018-09-26T11:18:38.912Z,17.80
2018-09-26T11:21:08.135Z,18.00
2018-09-26T11:23:37.335Z,18.00
2018-09-26T11:26:06.644Z,18.00
2018-09-26T11:28:35.829Z,18.00
2018-09-26T11:31:05.011Z,17.80
2018-09-26T11:33:34.327Z,18.00
2018-09-26T11:36:03.446Z,17.70
2018-09-26T11:38:32.655Z,17.40
2018-09-26T11:41:01.879Z,17.50
2018-09-26T11:43:31.054Z,17.70
2018-09-26T11:46:00.293Z,17.80
2018-09-26T11:48:29.568Z,17.90
2018-09-26T11:50:58.780Z,18.00
2018-09-26T11:53:28.028Z,18.00
2018-09-26T11:55:57.340Z,18.00
2018-09-26T11:58:26.586Z,18.20
2018-09-26T12:00:55.676Z,18.20
2018-09-26T12:03:24.847Z,18.30
2018-09-26T12:05:54.062Z,18.30
2018-09-26T12:08:23.326Z,18.40
2018-09-26T12:10:52.476Z,18.60
2018-09-26T12:13:21.808Z,18.70
2018-09-26T12:15:51.179Z,19.00
2018-09-26T12:18:20.512Z,18.30
2018-09-26T12:20:49.658Z,18.30
2018-09-26T12:23:18.875Z,18.60
2018-09-26T12:25:48.251Z,18.80
2018-09-26T12:28:17.697Z,18.70
2018-09-26T12:30:46.934Z,18.40
2018-09-26T12:33:16.172Z,18.10
2018-09-26T12:35:45.421Z,18.10
2018-09-26T12:38:15.318Z,18.00
2018-09-26T12:40:44.587Z,18.00
2018-09-26T12:43:14.321Z,18.40
2018-09-26T12:45:43.628Z,18.80
2018-09-26T12:48:12.992Z,19.20
2018-09-26T12:50:42.160Z,19.40
2018-09-26T12:53:11.371Z,19.20
2018-09-26T12:55:40.540Z,19.40
2018-09-26T12:58:09.745Z,19.60
2018-09-26T13:00:39.223Z,19.70
2018-09-26T13:03:08.493Z,19.40
2018-09-26T13:05:37.673Z,19.10
2018-09-26T13:08:07.107Z,19.30
2018-09-26T13:10:37.398Z,19.50
2018-09-26T13:13:07.160Z,19.20
2018-09-26T13:15:36.389Z,19.00
2018-09-26T13:18:05.643Z,19.20
2018-09-26T13:20:34.840Z,19.10
2018-09-26T13:23:04.142Z,19.00
2018-09-26T13:25:33.417Z,18.80
2018-09-26T13:28:02.772Z,18.80
2018-09-26T13:30:33.979Z,18.80
2018-09-26T13:33:03.362Z,18.70
2018-09-26T13:35:32.546Z,18.50
2018-09-26T13:38:01.809Z,18.50
2018-09-26T13:40:31.115Z,18.50
2018-09-26T13:43:00.679Z,18.90
2018-09-26T13:45:29.919Z,19.20
2018-09-26T13:47:59.144Z,19.40
2018-09-26T13:50:28.352Z,19.10
2018-09-26T13:52:57.548Z,19.10
2018-09-26T13:55:26.763Z,18.90
2018-09-26T13:57:55.952Z,18.80
2018-09-26T14:00:25.310Z,18.80
2018-09-26T14:02:54.496Z,18.80
2018-09-26T14:05:23.680Z,18.90
2018-09-26T14:07:52.935Z,19.00
2018-09-26T14:10:22.114Z,19.40
2018-09-26T14:12:51.288Z,19.80
2018-09-26T14:15:21.156Z,19.80
2018-09-26T14:17:50.349Z,20.00
2018-09-26T14:20:19.628Z,19.70
2018-09-26T14:22:48.865Z,19.90
2018-09-26T14:25:18.041Z,19.90
2018-09-26T14:27:47.244Z,20.00
2018-09-26T14:30:16.538Z,20.00
2018-09-26T14:32:45.840Z,20.00
2018-09-26T14:35:15.144Z,20.00
2018-09-26T14:37:44.327Z,19.60
2018-09-26T14:40:13.553Z,19.50
2018-09-26T14:42:42.781Z,19.20
2018-09-26T14:45:13.173Z,19.10
2018-09-26T14:47:42.398Z,19.00
2018-09-26T14:50:11.599Z,19.00
2018-09-26T14:52:40.843Z,18.80
2018-09-26T14:55:10.157Z,18.90
2018-09-26T14:57:39.344Z,18.90
2018-09-26T15:00:09.343Z,19.00
2018-09-26T15:02:39.107Z,19.20
2018-09-26T15:05:08.373Z,19.40
2018-09-26T15:07:37.768Z,19.00
2018-09-26T15:10:08.081Z,18.70
2018-09-26T15:12:37.486Z,18.60
2018-09-26T15:15:06.903Z,18.60
2018-09-26T15:17:36.695Z,18.40
2018-09-26T15:20:06.385Z,18.20
2018-09-26T15:22:35.584Z,18.40
2018-09-26T15:25:05.984Z,18.50
2018-09-26T15:27:35.227Z,18.50
2018-09-26T15:30:04.561Z,18.50
2018-09-26T15:32:34.344Z,18.30
2018-09-26T15:35:04.273Z,18.30
2018-09-26T15:37:33.512Z,18.30
2018-09-26T15:40:02.787Z,18.80
2018-09-26T15:42:32.063Z,18.50
2018-09-26T15:45:01.279Z,18.20
2018-09-26T15:47:30.521Z,18.00
2018-09-26T15:49:59.801Z,17.90
2018-09-26T15:52:29.000Z,17.90
2018-09-26T15:54:58.291Z,18.10
2018-09-26T15:57:27.468Z,17.90
2018-09-26T15:59:56.684Z,17.70
2018-09-26T16:02:25.937Z,17.70
2018-09-26T16:04:55.091Z,17.60
2018-09-26T16:07:24.276Z,17.60
2018-09-26T16:09:53.488Z,17.50
2018-09-26T16:12:22.944Z,17.40
2018-09-26T16:14:52.090Z,17.30
2018-09-26T16:17:22.044Z,17.30
2018-09-26T16:19:51.360Z,17.30
2018-09-26T16:22:20.707Z,17.20
2018-09-26T16:24:49.933Z,17.20
2018-09-26T16:27:19.121Z,17.20
2018-09-26T16:29:48.328Z,17.10
2018-09-26T16:32:17.663Z,17.10
2018-09-26T16:34:46.816Z,17.00
2018-09-26T16:37:16.026Z,17.00
2018-09-26T16:39:45.824Z,17.00
2018-09-26T16:42:15.134Z,16.90
2018-09-26T16:44:44.265Z,16.90
2018-09-26T16:47:13.466Z,16.90
2018-09-26T16:49:42.701Z,16.80
2018-09-26T16:52:11.923Z,16.80
2018-09-26T16:54:41.114Z,16.80
2018-09-26T16:57:10.300Z,16.80
2018-09-26T16:59:39.960Z,16.70
2018-09-26T17:02:09.266Z,16.70
2018-09-26T17:04:38.404Z,16.70
2018-09-26T17:07:07.639Z,16.60
2018-09-26T17:09:36.804Z,16.60
2018-09-26T17:12:06.134Z,16.60
2018-09-26T17:14:35.304Z,16.50
2018-09-26T17:17:04.577Z,16.50
2018-09-26T17:19:33.798Z,16.40
2018-09-26T17:22:03.018Z,16.40
2018-09-26T17:24:33.846Z,16.40
2018-09-26T17:27:03.173Z,16.40
2018-09-26T17:29:33.084Z,16.30
2018-09-26T17:32:02.687Z,16.30
2018-09-26T17:34:31.971Z,16.30
2018-09-26T17:37:01.196Z,16.30
2018-09-26T17:39:30.429Z,16.30
2018-09-26T17:41:59.660Z,16.30
2018-09-26T17:44:28.888Z,16.30
2018-09-26T17:46:58.102Z,16.30
2018-09-26T17:49:27.319Z,16.20
2018-09-26T17:51:57.420Z,16.20
2018-09-26T17:54:26.696Z,16.10
2018-09-26T17:56:55.900Z,16.10
2018-09-26T17:59:25.152Z,16.10
2018-09-26T18:01:54.380Z,16.10
2018-09-26T18:04:23.681Z,16.10
2018-09-26T18:06:52.854Z,16.00
2018-09-26T18:09:22.103Z,16.10
2018-09-26T18:11:51.307Z,16.00
2018-09-26T18:14:20.553Z,16.00
2018-09-26T18:16:49.769Z,16.00
2018-09-26T18:19:18.996Z,16.00
2018-09-26T18:21:48.222Z,16.00
2018-09-26T18:24:17.439Z,16.00
2018-09-26T18:26:46.756Z,15.90
2018-09-26T18:29:16.629Z,15.90
2018-09-26T18:31:46.066Z,15.90
2018-09-26T18:34:15.469Z,15.90
2018-09-26T18:36:44.821Z,15.90
2018-09-26T18:39:14.148Z,15.90
2018-09-26T18:41:43.324Z,15.90
2018-09-26T18:44:12.758Z,15.90
2018-09-26T18:46:41.963Z,15.90
2018-09-26T18:49:11.190Z,15.90
2018-09-26T18:51:40.401Z,15.90
2018-09-26T18:54:09.614Z,15.80
2018-09-26T18:56:38.921Z,15.90
2018-09-26T18:59:08.432Z,15.90
2018-09-26T19:01:37.632Z,15.90
2018-09-26T19:04:06.899Z,15.80
2018-09-26T19:06:36.098Z,15.90
2018-09-26T19:09:07.692Z,15.80
2018-09-26T19:11:36.848Z,15.80
2018-09-26T19:14:07.097Z,15.80
2018-09-26T19:16:36.293Z,15.80
2018-09-26T19:19:05.932Z,15.80
2018-09-26T19:21:35.283Z,15.80
2018-09-26T19:24:04.480Z,15.80
2018-09-26T19:26:33.740Z,15.80
2018-09-26T19:29:03.738Z,15.80
2018-09-26T19:31:33.002Z,15.80
2018-09-26T19:34:02.318Z,15.80
2018-09-26T19:36:31.632Z,15.80
2018-09-26T19:39:00.888Z,15.70
2018-09-26T19:41:30.356Z,15.80
2018-09-26T19:43:59.591Z,15.80
2018-09-26T19:46:29.795Z,15.70
2018-09-26T19:48:59.076Z,15.80
2018-09-26T19:51:28.277Z,15.80
2018-09-26T19:53:57.599Z,15.80
2018-09-26T19:56:27.068Z,15.80
2018-09-26T19:58:56.075Z,15.80
2018-09-26T20:01:25.827Z,15.70
2018-09-26T20:03:55.087Z,15.70
2018-09-26T20:06:24.309Z,15.70
2018-09-26T20:08:53.500Z,15.60
2018-09-26T20:11:22.695Z,15.60
2018-09-26T20:13:51.917Z,15.60
2018-09-26T20:16:21.154Z,15.60
2018-09-26T20:18:50.347Z,15.60
2018-09-26T20:21:19.589Z,15.60
2018-09-26T20:23:48.823Z,15.50
2018-09-26T20:26:18.028Z,15.50
2018-09-26T20:28:47.292Z,15.50
2018-09-26T20:31:16.476Z,15.40
2018-09-26T20:33:45.665Z,15.40
2018-09-26T20:36:14.934Z,15.40
2018-09-26T20:38:44.123Z,15.40
2018-09-26T20:41:13.444Z,15.40
2018-09-26T20:43:42.619Z,15.40
2018-09-26T20:46:11.866Z,15.30
2018-09-26T20:48:41.107Z,15.20
2018-09-26T20:51:10.284Z,15.20
2018-09-26T20:53:39.559Z,15.10
2018-09-26T20:56:08.784Z,15.10
2018-09-26T20:58:38.007Z,15.00
2018-09-26T21:01:07.519Z,15.00
2018-09-26T21:03:36.701Z,14.90
2018-09-26T21:06:05.975Z,14.90
2018-09-26T21:08:35.125Z,14.80
2018-09-26T21:11:04.396Z,14.80
2018-09-26T21:13:33.636Z,14.70
2018-09-26T21:16:02.859Z,14.60
2018-09-26T21:18:32.044Z,14.60
2018-09-26T21:21:01.305Z,14.60
2018-09-26T21:23:30.480Z,14.60
2018-09-26T21:25:59.780Z,14.50
2018-09-26T21:28:29.251Z,14.50
2018-09-26T21:30:58.548Z,14.50
2018-09-26T21:33:27.752Z,14.50
2018-09-26T21:35:56.957Z,14.50
2018-09-26T21:38:26.152Z,14.40
2018-09-26T21:40:55.399Z,14.40
2018-09-26T21:43:24.610Z,14.30
2018-09-26T21:45:53.796Z,14.30
2018-09-26T21:48:23.041Z,14.30
2018-09-26T21:50:52.243Z,14.20
2018-09-26T21:53:21.480Z,14.20
2018-09-26T21:55:50.740Z,14.20
2018-09-26T21:58:20.212Z,14.00
2018-09-26T22:00:54.862Z,14.00
2018-09-26T22:03:24.689Z,14.00
2018-09-26T22:05:53.800Z,14.00
2018-09-26T22:08:23.655Z,13.90
2018-09-26T22:10:52.894Z,13.90
2018-09-26T22:13:22.644Z,13.90
2018-09-26T22:15:52.296Z,13.80
2018-09-26T22:18:21.432Z,13.90
2018-09-26T22:20:50.608Z,13.80
2018-09-26T22:23:19.719Z,13.80
2018-09-26T22:25:48.831Z,13.80
2018-09-26T22:28:18.097Z,13.70
2018-09-26T22:30:47.271Z,13.70
2018-09-26T22:33:16.420Z,13.70
2018-09-26T22:35:45.703Z,13.70
2018-09-26T22:38:14.867Z,13.70
2018-09-26T22:40:43.985Z,13.60
2018-09-26T22:43:13.089Z,13.60
2018-09-26T22:45:42.274Z,13.60
2018-09-26T22:48:11.527Z,13.60
2018-09-26T22:50:40.876Z,13.60
2018-09-26T22:53:10.050Z,13.60
2018-09-26T22:55:39.180Z,13.60
2018-09-26T22:58:08.407Z,13.50
2018-09-26T23:00:37.609Z,13.50
2018-09-26T23:03:06.875Z,13.50
2018-09-26T23:05:36.030Z,13.50
2018-09-26T23:08:05.285Z,13.60
2018-09-26T23:10:34.496Z,13.60
2018-09-26T23:13:03.678Z,13.60
2018-09-26T23:15:32.824Z,13.60
2018-09-26T23:18:02.089Z,13.60
2018-09-26T23:20:31.204Z,13.70
2018-09-26T23:23:00.360Z,13.60
2018-09-26T23:25:29.486Z,13.60
2018-09-26T23:27:59.582Z,13.60
2018-09-26T23:30:28.735Z,13.60
2018-09-26T23:32:57.872Z,13.50
2018-09-26T23:35:26.976Z,13.50
2018-09-26T23:37:56.831Z,13.40
2018-09-26T23:40:26.008Z,13.30
2018-09-26T23:42:55.444Z,13.30
2018-09-26T23:45:24.608Z,13.40
2018-09-26T23:47:53.775Z,13.50
2018-09-26T23:50:23.017Z,13.40
2018-09-26T23:52:52.251Z,13.40
2018-09-26T23:55:21.482Z,13.40
2018-09-26T23:57:50.656Z,13.40
